Aviation Digital Data Service (ADDS)

Output produced by METARs form (1214 UTC 23 August 2017)
found at http://aviationweather.gov/adds/metars/
 
KMSS 231120Z 2312/2412 24010G21KT P6SM FEW045 
     FM240000 VRB05KT P6SM SCT100